Airport View

Enter AWOS ICAO identifier for current METAR.

ex. KFNL

KLUG 031535Z AUTO 00000KT 10SM CLR 30/21 A3000 RMK A01

3 Jul 2020 15:51

Frequency: 135.775

Phone: 931-270-1014

Other Area AWOS: KSYI - KMRC - KGZS - KTHA

TAF KBNA 031133Z 0312/0412 04006KT P6SM FEW060 FEW250